createdAt,value
2023-04-09T00:00:40.597Z,101816.41
2023-04-09T00:03:42.799Z,101821.81
2023-04-09T00:06:45.195Z,101815.91
2023-04-09T00:09:47.268Z,101820.47
2023-04-09T00:12:49.477Z,101816.41
2023-04-09T00:15:52.609Z,101818.59
2023-04-09T00:18:54.762Z,101823.88
2023-04-09T00:21:57.088Z,101821.31
2023-04-09T00:24:59.214Z,101820.59
2023-04-09T00:28:02.693Z,101821.94
2023-04-09T00:31:05.837Z,101820.97
2023-04-09T00:34:08.005Z,101827.06
2023-04-09T00:37:10.019Z,101826.00
2023-04-09T00:40:13.475Z,101832.38
2023-04-09T00:43:16.252Z,101829.53
2023-04-09T00:46:18.990Z,101829.69
2023-04-09T00:49:22.781Z,101829.66
2023-04-09T00:52:25.970Z,101830.19
2023-04-09T00:55:29.329Z,101826.50
2023-04-09T00:58:31.688Z,101830.69
2023-04-09T01:01:33.930Z,101829.00
2023-04-09T01:04:37.027Z,101828.84
2023-04-09T01:07:46.188Z,101828.63
2023-04-09T01:11:03.659Z,101826.94
2023-04-09T01:14:19.982Z,101820.47
2023-04-09T01:17:33.846Z,101814.56
2023-04-09T01:20:40.965Z,101818.69
2023-04-09T01:24:01.439Z,101820.03
2023-04-09T01:27:13.286Z,101817.34
2023-04-09T01:30:27.201Z,101822.06
2023-04-09T01:33:31.505Z,101820.69
2023-04-09T01:36:35.992Z,101824.31
2023-04-09T01:39:39.269Z,101819.91
2023-04-09T01:42:42.516Z,101822.72
2023-04-09T01:45:45.964Z,101827.94
2023-04-09T01:48:48.885Z,101823.44
2023-04-09T01:51:51.688Z,101820.59
2023-04-09T01:54:53.787Z,101808.25
2023-04-09T01:57:55.923Z,101814.00
2023-04-09T02:01:23.844Z,101809.44
2023-04-09T02:04:40.815Z,101812.31
2023-04-09T02:07:46.330Z,101815.69
2023-04-09T02:10:55.658Z,101807.59
2023-04-09T02:13:58.908Z,101809.41
2023-04-09T02:17:01.947Z,101815.13
2023-04-09T02:20:04.651Z,101815.13
2023-04-09T02:23:06.755Z,101811.69
2023-04-09T02:26:08.927Z,101817.78
2023-04-09T02:29:11.167Z,101815.63
2023-04-09T02:32:13.400Z,101818.69
2023-04-09T02:35:15.717Z,101819.41
2023-04-09T02:38:17.872Z,101819.97
2023-04-09T02:41:20.634Z,101821.56
2023-04-09T02:44:24.322Z,101824.28
2023-04-09T02:47:27.442Z,101820.50
2023-04-09T02:50:29.608Z,101824.41
2023-04-09T02:53:31.932Z,101820.50
2023-04-09T02:56:34.242Z,101823.44
2023-04-09T02:59:36.378Z,101833.56
2023-04-09T03:02:38.654Z,101824.38
2023-04-09T03:05:40.833Z,101831.16
2023-04-09T03:08:43.103Z,101833.88
2023-04-09T03:11:45.138Z,101832.50
2023-04-09T03:14:47.220Z,101830.81
2023-04-09T03:17:49.501Z,101832.66
2023-04-09T03:20:51.808Z,101828.72
2023-04-09T03:23:53.957Z,101832.66
2023-04-09T03:26:57.673Z,101832.13
2023-04-09T03:30:00.490Z,101831.28
2023-04-09T03:33:10.120Z,101841.84
2023-04-09T03:36:28.110Z,101847.97
2023-04-09T03:39:34.115Z,101851.75
2023-04-09T03:42:37.579Z,101841.94
2023-04-09T03:45:41.534Z,101851.44
2023-04-09T03:48:55.051Z,101860.03
2023-04-09T03:52:09.344Z,101856.00
2023-04-09T03:55:16.312Z,101866.34
2023-04-09T03:58:18.927Z,101865.81
2023-04-09T04:01:21.628Z,101863.91
2023-04-09T04:04:34.089Z,101868.16
2023-04-09T04:07:39.569Z,101863.84
2023-04-09T04:10:46.156Z,101870.56
2023-04-09T04:13:51.046Z,101873.88
2023-04-09T04:16:53.377Z,101869.94
2023-04-09T04:19:58.321Z,101873.53
2023-04-09T04:23:00.517Z,101869.19
2023-04-09T04:26:10.174Z,101877.81
2023-04-09T04:29:12.762Z,101877.59
2023-04-09T04:32:27.408Z,101880.31
2023-04-09T04:35:30.733Z,101888.16
2023-04-09T04:38:36.962Z,101890.47
2023-04-09T04:41:42.974Z,101890.38
2023-04-09T04:44:52.264Z,101887.84
2023-04-09T04:48:24.005Z,101892.25
2023-04-09T04:51:29.334Z,101891.41
2023-04-09T04:54:42.864Z,101879.28
2023-04-09T04:57:53.420Z,101888.31
2023-04-09T05:01:01.321Z,101893.63
2023-04-09T05:04:04.778Z,101884.47
2023-04-09T05:07:09.159Z,101893.78
2023-04-09T05:10:21.979Z,101892.06
2023-04-09T05:13:25.081Z,101893.53
2023-04-09T05:16:28.130Z,101894.41
2023-04-09T05:19:37.474Z,101890.38
2023-04-09T05:22:43.066Z,101899.63
2023-04-09T05:25:51.658Z,101905.19
2023-04-09T05:29:11.569Z,101904.69
2023-04-09T05:32:14.127Z,101900.41
2023-04-09T05:35:16.224Z,101905.00
2023-04-09T05:38:19.601Z,101903.31
2023-04-09T05:41:29.927Z,101901.28
2023-04-09T05:44:50.609Z,101898.91
2023-04-09T05:47:56.144Z,101894.66
2023-04-09T05:51:01.020Z,101897.56
2023-04-09T05:54:04.350Z,101898.41
2023-04-09T05:57:11.508Z,101903.16
2023-04-09T06:00:18.606Z,101902.84
2023-04-09T06:03:25.317Z,101909.28
2023-04-09T06:06:34.092Z,101906.28
2023-04-09T06:09:39.695Z,101907.31
2023-04-09T06:12:45.566Z,101902.59
2023-04-09T06:15:48.415Z,101900.03
2023-04-09T06:18:54.325Z,101910.84
2023-04-09T06:21:59.017Z,101907.72
2023-04-09T06:25:01.275Z,101907.38
2023-04-09T06:28:03.415Z,101914.56
2023-04-09T06:31:05.533Z,101919.28
2023-04-09T06:34:07.949Z,101919.50
2023-04-09T06:37:10.213Z,101922.03
2023-04-09T06:40:12.685Z,101919.81
2023-04-09T06:43:14.910Z,101918.13
2023-04-09T06:46:26.950Z,101916.75
2023-04-09T06:49:29.258Z,101923.88
2023-04-09T06:52:31.788Z,101912.34
2023-04-09T06:55:33.934Z,101919.63
2023-04-09T06:58:36.476Z,101911.81
2023-04-09T07:01:41.157Z,101913.00
2023-04-09T07:04:44.103Z,101908.28
2023-04-09T07:07:47.089Z,101912.16
2023-04-09T07:10:49.717Z,101913.50
2023-04-09T07:13:52.851Z,101911.13
2023-04-09T07:16:55.388Z,101913.00
2023-04-09T07:19:57.597Z,101914.03
2023-04-09T07:23:01.221Z,101899.94
2023-04-09T07:26:06.650Z,101913.88
2023-04-09T07:29:08.735Z,101907.25
2023-04-09T07:32:10.925Z,101909.13
2023-04-09T07:35:13.442Z,101907.44
2023-04-09T07:38:16.520Z,101911.16
2023-04-09T07:41:18.840Z,101914.53
2023-04-09T07:44:20.908Z,101905.75
2023-04-09T07:47:24.358Z,101923.59
2023-04-09T07:50:27.222Z,101925.41
2023-04-09T07:53:29.471Z,101911.53
2023-04-09T07:56:35.768Z,101921.13
2023-04-09T07:59:38.168Z,101927.69
2023-04-09T08:02:40.560Z,101922.09
2023-04-09T08:05:44.391Z,101928.88
2023-04-09T08:08:47.601Z,101918.16
2023-04-09T08:11:50.537Z,101915.75
2023-04-09T08:14:52.983Z,101923.59
2023-04-09T08:17:55.147Z,101920.56
2023-04-09T08:20:57.825Z,101920.03
2023-04-09T08:24:04.761Z,101913.19
2023-04-09T08:27:06.887Z,101913.06
2023-04-09T08:30:09.964Z,101919.72
2023-04-09T08:33:12.248Z,101910.25
2023-04-09T08:36:16.204Z,101911.88
2023-04-09T08:39:21.289Z,101913.19
2023-04-09T08:42:25.851Z,101908.09
2023-04-09T08:45:28.290Z,101907.59
2023-04-09T08:48:30.511Z,101904.50
2023-04-09T08:51:32.771Z,101912.34
2023-04-09T08:54:35.697Z,101907.59
2023-04-09T08:57:42.083Z,101897.31
2023-04-09T09:00:44.794Z,101899.16
2023-04-09T09:04:04.634Z,101895.59
2023-04-09T09:07:07.548Z,101899.84
2023-04-09T09:10:10.043Z,101893.84
2023-04-09T09:13:26.325Z,101886.63
2023-04-09T09:16:29.038Z,101884.28
2023-04-09T09:19:36.701Z,101890.94
2023-04-09T09:23:00.128Z,101890.75
2023-04-09T09:26:14.410Z,101880.44
2023-04-09T09:29:17.659Z,101883.16
2023-04-09T09:32:22.198Z,101878.53
2023-04-09T09:35:24.510Z,101874.63
2023-04-09T09:38:27.200Z,101877.81
2023-04-09T09:41:29.558Z,101884.81
2023-04-09T09:44:33.478Z,101880.78
2023-04-09T09:47:36.841Z,101878.66
2023-04-09T09:50:48.451Z,101887.94
2023-04-09T09:53:55.763Z,101877.44
2023-04-09T09:57:04.874Z,101879.16
2023-04-09T10:00:12.696Z,101878.09
2023-04-09T10:03:20.211Z,101876.00
2023-04-09T10:06:23.416Z,101869.66
2023-04-09T10:09:28.227Z,101870.19
2023-04-09T10:12:32.844Z,101866.75
2023-04-09T10:15:35.118Z,101861.91
2023-04-09T10:18:37.265Z,101866.84
2023-04-09T10:21:57.890Z,101869.09
2023-04-09T10:25:00.195Z,101855.19
2023-04-09T10:28:15.716Z,101856.69
2023-04-09T10:31:21.258Z,101849.09
2023-04-09T10:34:30.888Z,101841.19
2023-04-09T10:37:33.039Z,101833.22
2023-04-09T10:40:47.418Z,101840.72
2023-04-09T10:43:51.071Z,101834.69
2023-04-09T10:46:56.905Z,101836.78
2023-04-09T10:49:59.130Z,101835.28
2023-04-09T10:53:04.117Z,101832.75
2023-04-09T10:56:16.437Z,101827.66
2023-04-09T10:59:18.789Z,101821.75
2023-04-09T11:02:23.938Z,101816.38
2023-04-09T11:05:40.045Z,101817.13
2023-04-09T11:08:44.572Z,101827.59
2023-04-09T11:11:54.950Z,101812.78
2023-04-09T11:14:57.623Z,101807.88
2023-04-09T11:18:03.128Z,101810.06
2023-04-09T11:21:08.180Z,101811.59
2023-04-09T11:24:12.783Z,101809.34
2023-04-09T11:27:17.331Z,101802.03
2023-04-09T11:30:20.933Z,101799.59
2023-04-09T11:33:34.766Z,101797.34
2023-04-09T11:36:38.377Z,101802.75
2023-04-09T11:39:49.112Z,101795.06
2023-04-09T11:42:55.658Z,101793.34
2023-04-09T11:46:02.284Z,101797.00
2023-04-09T11:49:05.782Z,101791.91
2023-04-09T11:52:09.833Z,101794.63
2023-04-09T11:55:13.929Z,101800.06
2023-04-09T11:58:16.940Z,101794.09
2023-04-09T12:01:22.576Z,101803.59
2023-04-09T12:04:25.671Z,101786.59
2023-04-09T12:07:33.005Z,101785.59
2023-04-09T12:10:53.729Z,101785.94
2023-04-09T12:14:00.339Z,101778.63
2023-04-09T12:17:06.716Z,101777.22
2023-04-09T12:20:12.244Z,101764.66
2023-04-09T12:23:17.421Z,101778.63
2023-04-09T12:26:21.217Z,101771.09
2023-04-09T12:29:23.307Z,101770.34
2023-04-09T12:32:28.129Z,101760.31
2023-04-09T12:35:32.926Z,101767.06
2023-04-09T12:38:35.526Z,101764.53
2023-04-09T12:41:39.323Z,101756.88
2023-04-09T12:44:45.776Z,101753.00
2023-04-09T12:47:54.500Z,101756.13
2023-04-09T12:51:01.985Z,101746.13
2023-04-09T12:54:13.052Z,101746.16
2023-04-09T12:57:16.000Z,101733.94
2023-04-09T13:00:18.511Z,101724.47
2023-04-09T13:03:22.190Z,101723.94
2023-04-09T13:06:25.380Z,101722.97
2023-04-09T13:09:29.493Z,101706.69
2023-04-09T13:12:33.799Z,101715.00
2023-04-09T13:15:44.083Z,101709.97
2023-04-09T13:18:46.767Z,101715.00
2023-04-09T13:21:53.380Z,101710.16
2023-04-09T13:24:57.583Z,101715.69
2023-04-09T13:28:01.861Z,101703.59
2023-04-09T13:31:04.958Z,101718.81
2023-04-09T13:34:10.266Z,101710.53
2023-04-09T13:37:12.765Z,101712.97
2023-04-09T13:40:14.912Z,101703.50
2023-04-09T13:43:17.082Z,101704.34
2023-04-09T13:46:19.559Z,101705.47
2023-04-09T13:49:22.297Z,101702.75
2023-04-09T13:52:29.685Z,101706.50
2023-04-09T13:55:37.718Z,101697.47
2023-04-09T13:58:40.572Z,101687.25
2023-04-09T14:01:42.790Z,101690.69
2023-04-09T14:04:45.777Z,101681.75
2023-04-09T14:07:48.413Z,101695.13
2023-04-09T14:10:51.409Z,101681.16
2023-04-09T14:13:56.234Z,101684.28
2023-04-09T14:16:58.433Z,101684.03
2023-04-09T14:20:06.202Z,101681.38
2023-04-09T14:24:00.563Z,101686.19
2023-04-09T14:27:03.348Z,101679.03
2023-04-09T14:30:10.145Z,101674.75
2023-04-09T14:33:15.344Z,101681.06
2023-04-09T14:36:17.881Z,101678.53
2023-04-09T14:39:19.860Z,101677.16
2023-04-09T14:42:22.143Z,101666.75
2023-04-09T14:45:24.308Z,101663.63
2023-04-09T14:48:26.594Z,101669.91
2023-04-09T14:51:32.856Z,101664.78
2023-04-09T14:54:37.885Z,101657.28
2023-04-09T14:57:40.788Z,101661.97
2023-04-09T15:00:45.051Z,101656.25
2023-04-09T15:03:47.908Z,101660.28
2023-04-09T15:06:52.590Z,101644.25
2023-04-09T15:09:54.899Z,101642.41
2023-04-09T15:12:57.008Z,101645.47
2023-04-09T15:15:59.246Z,101643.78
2023-04-09T15:19:02.965Z,101636.19
2023-04-09T15:22:08.392Z,101644.03
2023-04-09T15:25:14.984Z,101643.00
2023-04-09T15:28:19.287Z,101646.19
2023-04-09T15:31:21.859Z,101638.28
2023-04-09T15:34:25.947Z,101635.97
2023-04-09T15:37:28.014Z,101645.31
2023-04-09T15:40:32.113Z,101629.47
2023-04-09T15:43:34.293Z,101633.50
2023-04-09T15:46:38.371Z,101635.09
2023-04-09T15:49:40.833Z,101630.94
2023-04-09T15:52:43.153Z,101626.75
2023-04-09T15:55:45.576Z,101628.16
2023-04-09T15:58:47.781Z,101628.41
2023-04-09T16:01:49.973Z,101623.81
2023-04-09T16:04:53.279Z,101624.28
2023-04-09T16:07:58.293Z,101628.06
2023-04-09T16:11:01.826Z,101624.50
2023-04-09T16:14:05.915Z,101622.97
2023-04-09T16:17:08.230Z,101620.44
2023-04-09T16:20:10.829Z,101618.09
2023-04-09T16:23:13.164Z,101613.41
2023-04-09T16:26:16.318Z,101624.75
2023-04-09T16:29:18.497Z,101616.66
2023-04-09T16:32:22.263Z,101618.72
2023-04-09T16:35:24.406Z,101623.50
2023-04-09T16:38:27.731Z,101617.75
2023-04-09T16:41:30.095Z,101617.44
2023-04-09T16:44:32.175Z,101633.94
2023-04-09T16:47:34.374Z,101627.47
2023-04-09T16:50:46.143Z,101624.63
2023-04-09T16:53:50.525Z,101624.22
2023-04-09T16:56:53.450Z,101639.22
2023-04-09T16:59:57.986Z,101633.66
2023-04-09T17:03:00.751Z,101641.81
2023-04-09T17:06:06.862Z,101641.81
2023-04-09T17:09:09.976Z,101641.31
2023-04-09T17:12:21.885Z,101643.56
2023-04-09T17:15:26.054Z,101650.56
2023-04-09T17:18:32.389Z,101645.13
2023-04-09T17:21:39.477Z,101645.16
2023-04-09T17:24:55.331Z,101654.69
2023-04-09T17:28:02.652Z,101657.16
2023-04-09T17:31:16.223Z,101663.13
2023-04-09T17:34:18.581Z,101655.88
2023-04-09T17:37:20.758Z,101672.44
2023-04-09T17:40:33.775Z,101674.19
2023-04-09T17:43:37.362Z,101674.38
2023-04-09T17:46:39.923Z,101669.59
2023-04-09T17:49:42.653Z,101683.72
2023-04-09T17:52:49.708Z,101683.22
2023-04-09T17:55:52.542Z,101680.84
2023-04-09T17:58:55.187Z,101688.00
2023-04-09T18:01:59.138Z,101686.31
2023-04-09T18:05:04.684Z,101686.50
2023-04-09T18:08:07.547Z,101694.47
2023-04-09T18:11:13.101Z,101692.09
2023-04-09T18:14:16.221Z,101692.28
2023-04-09T18:17:19.313Z,101702.81
2023-04-09T18:20:23.516Z,101704.00
2023-04-09T18:23:27.244Z,101703.19
2023-04-09T18:26:30.496Z,101701.00
2023-04-09T18:29:34.297Z,101711.13
2023-04-09T18:32:36.385Z,101711.66
2023-04-09T18:35:40.987Z,101704.06
2023-04-09T18:38:49.086Z,101700.66
2023-04-09T18:41:51.213Z,101702.66
2023-04-09T18:44:55.596Z,101694.53
2023-04-09T18:47:59.502Z,101690.25
2023-04-09T18:51:03.334Z,101688.25
2023-04-09T18:54:06.015Z,101692.84
2023-04-09T18:57:08.827Z,101683.88
2023-04-09T19:00:11.577Z,101688.28
2023-04-09T19:03:15.012Z,101689.66
2023-04-09T19:06:20.096Z,101693.88
2023-04-09T19:09:22.417Z,101693.19
2023-04-09T19:12:27.077Z,101690.25
2023-04-09T19:15:29.704Z,101689.41
2023-04-09T19:18:34.649Z,101689.63
2023-04-09T19:21:37.013Z,101697.94
2023-04-09T19:24:39.382Z,101694.91
2023-04-09T19:27:44.578Z,101693.72
2023-04-09T19:30:50.517Z,101687.28
2023-04-09T19:33:56.106Z,101693.91
2023-04-09T19:36:59.570Z,101690.00
2023-04-09T19:40:04.682Z,101686.75
2023-04-09T19:43:07.057Z,101703.03
2023-04-09T19:46:12.090Z,101693.03
2023-04-09T19:49:15.459Z,101686.25
2023-04-09T19:52:17.687Z,101696.91
2023-04-09T19:55:20.144Z,101693.16
2023-04-09T19:58:22.211Z,101689.13
2023-04-09T20:01:28.598Z,101699.09
2023-04-09T20:04:31.174Z,101694.88
2023-04-09T20:07:33.178Z,101687.25
2023-04-09T20:10:42.937Z,101688.63
2023-04-09T20:13:47.211Z,101688.28
2023-04-09T20:16:50.313Z,101688.94
2023-04-09T20:19:52.537Z,101686.25
2023-04-09T20:22:56.409Z,101684.56
2023-04-09T20:26:00.447Z,101679.81
2023-04-09T20:29:02.798Z,101688.81
2023-04-09T20:32:05.070Z,101690.16
2023-04-09T20:35:09.514Z,101687.25
2023-04-09T20:38:29.252Z,101684.56
2023-04-09T20:41:34.058Z,101673.88
2023-04-09T20:44:37.941Z,101688.28
2023-04-09T20:47:40.098Z,101689.28
2023-04-09T20:50:42.752Z,101677.44
2023-04-09T20:53:45.664Z,101684.41
2023-04-09T20:56:47.663Z,101681.47
2023-04-09T20:59:50.331Z,101675.41
2023-04-09T21:02:52.618Z,101680.13
2023-04-09T21:05:55.821Z,101678.25
2023-04-09T21:08:59.671Z,101677.41
2023-04-09T21:12:06.238Z,101673.50
2023-04-09T21:15:08.840Z,101676.59
2023-04-09T21:18:11.126Z,101679.28
2023-04-09T21:21:14.469Z,101676.56
2023-04-09T21:24:16.913Z,101683.53
2023-04-09T21:27:20.210Z,101678.28
2023-04-09T21:30:22.394Z,101674.59
2023-04-09T21:33:26.340Z,101677.28
2023-04-09T21:36:29.799Z,101683.00
2023-04-09T21:39:32.027Z,101671.53
2023-04-09T21:42:34.084Z,101670.66
2023-04-09T21:45:36.736Z,101675.03
2023-04-09T21:48:40.767Z,101672.84
2023-04-09T21:51:45.708Z,101668.63
2023-04-09T21:54:47.865Z,101665.56
2023-04-09T21:57:52.996Z,101658.63
2023-04-09T22:00:55.025Z,101658.94
2023-04-09T22:03:58.087Z,101661.50
2023-04-09T22:07:00.239Z,101661.66
2023-04-09T22:10:02.393Z,101672.50
2023-04-09T22:13:04.468Z,101670.94
2023-04-09T22:16:07.424Z,101674.50
2023-04-09T22:19:09.688Z,101672.47
2023-04-09T22:22:13.655Z,101671.13
2023-04-09T22:25:15.902Z,101658.06
2023-04-09T22:28:18.325Z,101660.28
2023-04-09T22:31:21.259Z,101665.19
2023-04-09T22:34:23.585Z,101663.00
2023-04-09T22:37:26.134Z,101659.09
2023-04-09T22:40:28.161Z,101662.63
2023-04-09T22:43:30.342Z,101663.59
2023-04-09T22:46:34.788Z,101656.00
2023-04-09T22:49:36.936Z,101662.44
2023-04-09T22:52:38.909Z,101658.88
2023-04-09T22:55:41.075Z,101660.75
2023-04-09T22:58:43.285Z,101653.16
2023-04-09T23:01:46.468Z,101646.34
2023-04-09T23:04:48.681Z,101652.63
2023-04-09T23:07:51.496Z,101649.53
2023-04-09T23:10:54.325Z,101636.00
2023-04-09T23:13:56.994Z,101647.69
2023-04-09T23:16:59.112Z,101640.25
2023-04-09T23:20:01.582Z,101643.22
2023-04-09T23:23:03.811Z,101637.81
2023-04-09T23:26:06.621Z,101638.50
2023-04-09T23:29:08.750Z,101632.78
2023-04-09T23:32:10.958Z,101631.41
2023-04-09T23:35:13.457Z,101628.00
2023-04-09T23:38:16.068Z,101632.75
2023-04-09T23:41:18.186Z,101631.75
2023-04-09T23:44:20.795Z,101634.28
2023-04-09T23:47:22.998Z,101625.25
2023-04-09T23:50:25.100Z,101621.44
2023-04-09T23:53:27.176Z,101620.66
2023-04-09T23:56:29.727Z,101623.03
2023-04-09T23:59:35.485Z,101623.72
